sensor_id;sensor_type;location;lat;lon;timestamp;P1;durP1;ratioP1;P2;durP2;ratioP2
44728;SDS011;30457;53.590;9.922;2022-08-19T00:03:32;7.97;;;5.93;;
44728;SDS011;30457;53.590;9.922;2022-08-19T00:07:58;8.45;;;6.05;;
44728;SDS011;30457;53.590;9.922;2022-08-19T00:12:23;8.70;;;5.40;;
44728;SDS011;30457;53.590;9.922;2022-08-19T00:16:49;8.15;;;5.72;;
44728;SDS011;30457;53.590;9.922;2022-08-19T00:21:19;12.32;;;7.00;;
44728;SDS011;30457;53.590;9.922;2022-08-19T00:25:44;11.90;;;7.95;;
44728;SDS011;30457;53.590;9.922;2022-08-19T00:30:10;13.10;;;8.93;;
44728;SDS011;30457;53.590;9.922;2022-08-19T00:34:36;14.57;;;9.02;;
44728;SDS011;30457;53.590;9.922;2022-08-19T00:39:01;11.57;;;9.00;;
44728;SDS011;30457;53.590;9.922;2022-08-19T00:43:28;12.75;;;8.68;;
44728;SDS011;30457;53.590;9.922;2022-08-19T00:47:53;13.10;;;9.05;;
44728;SDS011;30457;53.590;9.922;2022-08-19T00:52:35;18.08;;;11.75;;
44728;SDS011;30457;53.590;9.922;2022-08-19T00:57:05;13.98;;;9.73;;
44728;SDS011;30457;53.590;9.922;2022-08-19T01:01:38;17.60;;;10.95;;
44728;SDS011;30457;53.590;9.922;2022-08-19T01:06:06;15.52;;;9.52;;
44728;SDS011;30457;53.590;9.922;2022-08-19T01:10:33;13.38;;;8.93;;
44728;SDS011;30457;53.590;9.922;2022-08-19T01:15:06;14.00;;;8.88;;
44728;SDS011;30457;53.590;9.922;2022-08-19T01:19:35;11.52;;;8.20;;
44728;SDS011;30457;53.590;9.922;2022-08-19T01:24:04;13.45;;;8.80;;
44728;SDS011;30457;53.590;9.922;2022-08-19T01:28:29;14.70;;;8.57;;
44728;SDS011;30457;53.590;9.922;2022-08-19T01:32:55;15.80;;;7.78;;
44728;SDS011;30457;53.590;9.922;2022-08-19T01:37:21;12.90;;;8.32;;
44728;SDS011;30457;53.590;9.922;2022-08-19T01:41:47;16.25;;;9.27;;
44728;SDS011;30457;53.590;9.922;2022-08-19T01:46:13;17.23;;;9.10;;
44728;SDS011;30457;53.590;9.922;2022-08-19T01:50:39;13.65;;;9.57;;
44728;SDS011;30457;53.590;9.922;2022-08-19T01:55:05;15.63;;;9.10;;
44728;SDS011;30457;53.590;9.922;2022-08-19T01:59:33;15.52;;;9.00;;
44728;SDS011;30457;53.590;9.922;2022-08-19T02:04:01;14.90;;;8.88;;
44728;SDS011;30457;53.590;9.922;2022-08-19T02:08:27;16.40;;;9.70;;
44728;SDS011;30457;53.590;9.922;2022-08-19T02:12:54;16.42;;;8.98;;
44728;SDS011;30457;53.590;9.922;2022-08-19T02:17:20;14.38;;;8.90;;
44728;SDS011;30457;53.590;9.922;2022-08-19T02:21:45;18.92;;;9.93;;
44728;SDS011;30457;53.590;9.922;2022-08-19T02:26:11;17.38;;;9.88;;
44728;SDS011;30457;53.590;9.922;2022-08-19T02:30:38;18.23;;;9.05;;
44728;SDS011;30457;53.590;9.922;2022-08-19T02:35:05;17.73;;;9.15;;
44728;SDS011;30457;53.590;9.922;2022-08-19T02:39:31;22.00;;;11.02;;
44728;SDS011;30457;53.590;9.922;2022-08-19T02:43:58;22.58;;;10.00;;
44728;SDS011;30457;53.590;9.922;2022-08-19T02:48:25;24.33;;;9.50;;
44728;SDS011;30457;53.590;9.922;2022-08-19T02:52:51;25.67;;;11.52;;
44728;SDS011;30457;53.590;9.922;2022-08-19T02:57:17;26.48;;;12.35;;
44728;SDS011;30457;53.590;9.922;2022-08-19T03:01:42;34.05;;;12.75;;
44728;SDS011;30457;53.590;9.922;2022-08-19T03:06:09;35.25;;;14.90;;
44728;SDS011;30457;53.590;9.922;2022-08-19T03:10:44;33.55;;;13.60;;
44728;SDS011;30457;53.590;9.922;2022-08-19T03:15:11;27.65;;;12.48;;
44728;SDS011;30457;53.590;9.922;2022-08-19T03:19:37;32.17;;;12.60;;
44728;SDS011;30457;53.590;9.922;2022-08-19T03:24:04;24.08;;;11.45;;
44728;SDS011;30457;53.590;9.922;2022-08-19T03:28:32;19.77;;;10.73;;
44728;SDS011;30457;53.590;9.922;2022-08-19T03:32:58;21.15;;;10.63;;
44728;SDS011;30457;53.590;9.922;2022-08-19T03:37:24;24.70;;;9.88;;
44728;SDS011;30457;53.590;9.922;2022-08-19T03:41:51;20.15;;;9.88;;
44728;SDS011;30457;53.590;9.922;2022-08-19T03:46:24;21.67;;;9.48;;
44728;SDS011;30457;53.590;9.922;2022-08-19T03:50:52;18.13;;;8.73;;
44728;SDS011;30457;53.590;9.922;2022-08-19T03:55:18;25.73;;;11.57;;
44728;SDS011;30457;53.590;9.922;2022-08-19T03:59:44;20.73;;;10.65;;
44728;SDS011;30457;53.590;9.922;2022-08-19T04:04:09;22.52;;;11.43;;
44728;SDS011;30457;53.590;9.922;2022-08-19T04:08:35;22.10;;;12.35;;
44728;SDS011;30457;53.590;9.922;2022-08-19T04:13:01;26.83;;;11.20;;
44728;SDS011;30457;53.590;9.922;2022-08-19T04:17:28;29.90;;;13.43;;
44728;SDS011;30457;53.590;9.922;2022-08-19T04:21:54;23.95;;;12.07;;
44728;SDS011;30457;53.590;9.922;2022-08-19T04:26:22;28.88;;;12.50;;
44728;SDS011;30457;53.590;9.922;2022-08-19T04:30:51;24.35;;;12.63;;
44728;SDS011;30457;53.590;9.922;2022-08-19T04:35:18;31.70;;;13.93;;
44728;SDS011;30457;53.590;9.922;2022-08-19T04:39:44;25.52;;;12.48;;
44728;SDS011;30457;53.590;9.922;2022-08-19T04:44:29;23.70;;;12.05;;
44728;SDS011;30457;53.590;9.922;2022-08-19T04:48:56;21.42;;;10.05;;
44728;SDS011;30457;53.590;9.922;2022-08-19T04:53:24;24.10;;;10.25;;
44728;SDS011;30457;53.590;9.922;2022-08-19T04:57:50;15.77;;;9.38;;
44728;SDS011;30457;53.590;9.922;2022-08-19T05:02:16;14.05;;;8.45;;
44728;SDS011;30457;53.590;9.922;2022-08-19T05:06:41;18.55;;;9.50;;
44728;SDS011;30457;53.590;9.922;2022-08-19T05:11:12;16.38;;;8.80;;
44728;SDS011;30457;53.590;9.922;2022-08-19T05:15:40;12.23;;;7.50;;
44728;SDS011;30457;53.590;9.922;2022-08-19T05:20:06;16.95;;;8.25;;
44728;SDS011;30457;53.590;9.922;2022-08-19T05:24:51;17.73;;;8.30;;
44728;SDS011;30457;53.590;9.922;2022-08-19T05:29:20;13.90;;;7.07;;
44728;SDS011;30457;53.590;9.922;2022-08-19T05:33:46;14.10;;;7.13;;
44728;SDS011;30457;53.590;9.922;2022-08-19T05:38:12;10.07;;;7.18;;
44728;SDS011;30457;53.590;9.922;2022-08-19T05:42:37;12.02;;;6.18;;
44728;SDS011;30457;53.590;9.922;2022-08-19T05:47:04;13.07;;;6.05;;
44728;SDS011;30457;53.590;9.922;2022-08-19T05:51:31;10.77;;;7.35;;
44728;SDS011;30457;53.590;9.922;2022-08-19T05:56:05;8.40;;;5.70;;
44728;SDS011;30457;53.590;9.922;2022-08-19T06:00:34;12.60;;;6.95;;
44728;SDS011;30457;53.590;9.922;2022-08-19T06:05:01;9.77;;;6.68;;
44728;SDS011;30457;53.590;9.922;2022-08-19T06:09:28;12.68;;;7.00;;
44728;SDS011;30457;53.590;9.922;2022-08-19T06:13:54;10.32;;;6.05;;
44728;SDS011;30457;53.590;9.922;2022-08-19T06:18:21;18.50;;;7.78;;
44728;SDS011;30457;53.590;9.922;2022-08-19T06:22:48;11.32;;;6.60;;
44728;SDS011;30457;53.590;9.922;2022-08-19T06:27:17;16.73;;;7.20;;
44728;SDS011;30457;53.590;9.922;2022-08-19T06:31:44;10.57;;;6.70;;
44728;SDS011;30457;53.590;9.922;2022-08-19T06:36:21;10.05;;;6.50;;
44728;SDS011;30457;53.590;9.922;2022-08-19T06:41:04;12.30;;;6.85;;
44728;SDS011;30457;53.590;9.922;2022-08-19T06:45:29;15.52;;;6.43;;
44728;SDS011;30457;53.590;9.922;2022-08-19T06:49:56;15.02;;;6.60;;
44728;SDS011;30457;53.590;9.922;2022-08-19T06:54:30;10.07;;;6.45;;
44728;SDS011;30457;53.590;9.922;2022-08-19T06:58:57;11.63;;;7.30;;
44728;SDS011;30457;53.590;9.922;2022-08-19T07:03:23;10.50;;;5.90;;
44728;SDS011;30457;53.590;9.922;2022-08-19T07:07:48;12.32;;;5.90;;
44728;SDS011;30457;53.590;9.922;2022-08-19T07:12:14;9.43;;;4.80;;
44728;SDS011;30457;53.590;9.922;2022-08-19T07:16:40;7.50;;;4.72;;
44728;SDS011;30457;53.590;9.922;2022-08-19T07:21:07;7.20;;;4.15;;
44728;SDS011;30457;53.590;9.922;2022-08-19T07:25:36;8.88;;;4.45;;
44728;SDS011;30457;53.590;9.922;2022-08-19T07:30:02;6.68;;;4.22;;
44728;SDS011;30457;53.590;9.922;2022-08-19T07:34:30;5.25;;;4.05;;
44728;SDS011;30457;53.590;9.922;2022-08-19T07:39:00;7.07;;;4.75;;
44728;SDS011;30457;53.590;9.922;2022-08-19T07:43:29;5.80;;;4.70;;
44728;SDS011;30457;53.590;9.922;2022-08-19T07:47:54;6.95;;;4.30;;
44728;SDS011;30457;53.590;9.922;2022-08-19T07:52:20;8.27;;;3.78;;
44728;SDS011;30457;53.590;9.922;2022-08-19T07:56:46;5.88;;;4.72;;
44728;SDS011;30457;53.590;9.922;2022-08-19T08:01:13;7.10;;;4.15;;
44728;SDS011;30457;53.590;9.922;2022-08-19T08:05:42;6.65;;;4.43;;
44728;SDS011;30457;53.590;9.922;2022-08-19T08:10:27;7.73;;;4.50;;
44728;SDS011;30457;53.590;9.922;2022-08-19T08:14:54;11.32;;;5.10;;
44728;SDS011;30457;53.590;9.922;2022-08-19T08:19:27;6.78;;;5.38;;
44728;SDS011;30457;53.590;9.922;2022-08-19T08:23:53;10.40;;;5.82;;
44728;SDS011;30457;53.590;9.922;2022-08-19T08:28:20;13.57;;;6.63;;
44728;SDS011;30457;53.590;9.922;2022-08-19T08:32:46;12.60;;;7.10;;
44728;SDS011;30457;53.590;9.922;2022-08-19T08:37:13;9.35;;;6.30;;
44728;SDS011;30457;53.590;9.922;2022-08-19T08:50:55;15.23;;;7.60;;
44728;SDS011;30457;53.590;9.922;2022-08-19T08:55:25;13.77;;;7.30;;
44728;SDS011;30457;53.590;9.922;2022-08-19T08:59:53;9.73;;;5.80;;
44728;SDS011;30457;53.590;9.922;2022-08-19T09:04:21;10.82;;;6.28;;
44728;SDS011;30457;53.590;9.922;2022-08-19T09:17:44;12.10;;;6.22;;
44728;SDS011;30457;53.590;9.922;2022-08-19T09:22:10;13.23;;;5.38;;
44728;SDS011;30457;53.590;9.922;2022-08-19T09:26:36;8.52;;;5.25;;
44728;SDS011;30457;53.590;9.922;2022-08-19T09:31:01;7.75;;;5.65;;
44728;SDS011;30457;53.590;9.922;2022-08-19T09:35:28;7.78;;;4.97;;
44728;SDS011;30457;53.590;9.922;2022-08-19T09:39:54;10.68;;;5.78;;
44728;SDS011;30457;53.590;9.922;2022-08-19T09:44:20;9.55;;;5.88;;
44728;SDS011;30457;53.590;9.922;2022-08-19T09:48:46;12.10;;;6.25;;
44728;SDS011;30457;53.590;9.922;2022-08-19T09:53:13;10.52;;;6.15;;
44728;SDS011;30457;53.590;9.922;2022-08-19T09:57:39;9.05;;;6.60;;
44728;SDS011;30457;53.590;9.922;2022-08-19T10:02:05;16.65;;;8.27;;
44728;SDS011;30457;53.590;9.922;2022-08-19T10:06:30;13.93;;;7.35;;
44728;SDS011;30457;53.590;9.922;2022-08-19T10:10:58;14.27;;;7.10;;
44728;SDS011;30457;53.590;9.922;2022-08-19T10:15:24;13.82;;;7.03;;
44728;SDS011;30457;53.590;9.922;2022-08-19T10:19:49;12.48;;;7.70;;
44728;SDS011;30457;53.590;9.922;2022-08-19T10:24:15;13.85;;;8.05;;
44728;SDS011;30457;53.590;9.922;2022-08-19T10:28:40;13.95;;;7.75;;
44728;SDS011;30457;53.590;9.922;2022-08-19T10:33:06;12.77;;;7.07;;
44728;SDS011;30457;53.590;9.922;2022-08-19T10:37:32;19.63;;;8.48;;
44728;SDS011;30457;53.590;9.922;2022-08-19T10:41:57;13.05;;;8.45;;
44728;SDS011;30457;53.590;9.922;2022-08-19T10:46:24;17.65;;;7.60;;
44728;SDS011;30457;53.590;9.922;2022-08-19T10:50:51;14.43;;;8.50;;
44728;SDS011;30457;53.590;9.922;2022-08-19T10:55:35;15.98;;;8.82;;
44728;SDS011;30457;53.590;9.922;2022-08-19T11:00:20;13.27;;;7.38;;
44728;SDS011;30457;53.590;9.922;2022-08-19T11:04:47;12.32;;;8.30;;
44728;SDS011;30457;53.590;9.922;2022-08-19T11:09:16;14.93;;;8.25;;
44728;SDS011;30457;53.590;9.922;2022-08-19T11:13:43;11.82;;;7.82;;
44728;SDS011;30457;53.590;9.922;2022-08-19T11:18:11;13.45;;;7.93;;
44728;SDS011;30457;53.590;9.922;2022-08-19T11:22:37;12.93;;;7.10;;
44728;SDS011;30457;53.590;9.922;2022-08-19T11:27:04;11.73;;;7.40;;
44728;SDS011;30457;53.590;9.922;2022-08-19T11:31:32;12.25;;;7.18;;
44728;SDS011;30457;53.590;9.922;2022-08-19T11:36:00;11.23;;;8.20;;
44728;SDS011;30457;53.590;9.922;2022-08-19T11:40:26;12.02;;;7.53;;
44728;SDS011;30457;53.590;9.922;2022-08-19T11:44:52;12.02;;;7.38;;
44728;SDS011;30457;53.590;9.922;2022-08-19T11:49:18;10.38;;;6.68;;
44728;SDS011;30457;53.590;9.922;2022-08-19T11:53:45;8.77;;;7.15;;
44728;SDS011;30457;53.590;9.922;2022-08-19T11:58:12;12.35;;;6.50;;
44728;SDS011;30457;53.590;9.922;2022-08-19T12:02:39;11.75;;;6.93;;
44728;SDS011;30457;53.590;9.922;2022-08-19T12:07:05;12.43;;;7.05;;
44728;SDS011;30457;53.590;9.922;2022-08-19T12:11:31;9.15;;;6.38;;
44728;SDS011;30457;53.590;9.922;2022-08-19T12:15:56;9.57;;;7.22;;
44728;SDS011;30457;53.590;9.922;2022-08-19T12:20:23;9.10;;;6.57;;
44728;SDS011;30457;53.590;9.922;2022-08-19T12:24:49;9.02;;;7.20;;
44728;SDS011;30457;53.590;9.922;2022-08-19T12:29:17;8.95;;;6.32;;
44728;SDS011;30457;53.590;9.922;2022-08-19T12:33:42;10.75;;;7.32;;
44728;SDS011;30457;53.590;9.922;2022-08-19T12:38:08;12.10;;;6.82;;
44728;SDS011;30457;53.590;9.922;2022-08-19T12:42:33;10.27;;;7.68;;
44728;SDS011;30457;53.590;9.922;2022-08-19T12:46:59;7.97;;;6.60;;
44728;SDS011;30457;53.590;9.922;2022-08-19T12:51:26;7.68;;;6.63;;
44728;SDS011;30457;53.590;9.922;2022-08-19T12:55:55;8.65;;;6.28;;
44728;SDS011;30457;53.590;9.922;2022-08-19T13:00:22;7.85;;;6.78;;
44728;SDS011;30457;53.590;9.922;2022-08-19T13:04:48;6.97;;;6.20;;
44728;SDS011;30457;53.590;9.922;2022-08-19T13:09:13;9.50;;;6.18;;
44728;SDS011;30457;53.590;9.922;2022-08-19T13:13:40;8.95;;;6.75;;
44728;SDS011;30457;53.590;9.922;2022-08-19T13:18:07;10.60;;;6.68;;
44728;SDS011;30457;53.590;9.922;2022-08-19T13:22:34;9.43;;;6.55;;
44728;SDS011;30457;53.590;9.922;2022-08-19T13:27:01;6.32;;;5.72;;
44728;SDS011;30457;53.590;9.922;2022-08-19T13:31:27;7.90;;;6.30;;
44728;SDS011;30457;53.590;9.922;2022-08-19T13:36:12;9.18;;;6.47;;
44728;SDS011;30457;53.590;9.922;2022-08-19T13:40:38;7.57;;;6.70;;
44728;SDS011;30457;53.590;9.922;2022-08-19T13:45:05;7.63;;;6.45;;
44728;SDS011;30457;53.590;9.922;2022-08-19T13:49:32;8.23;;;7.20;;
44728;SDS011;30457;53.590;9.922;2022-08-19T13:54:00;8.48;;;6.95;;
44728;SDS011;30457;53.590;9.922;2022-08-19T13:58:26;6.70;;;6.10;;
44728;SDS011;30457;53.590;9.922;2022-08-19T14:02:52;7.32;;;6.60;;
44728;SDS011;30457;53.590;9.922;2022-08-19T14:07:20;11.38;;;7.85;;
44728;SDS011;30457;53.590;9.922;2022-08-19T14:11:48;7.97;;;6.75;;
44728;SDS011;30457;53.590;9.922;2022-08-19T14:16:16;10.88;;;7.38;;
44728;SDS011;30457;53.590;9.922;2022-08-19T14:20:41;8.50;;;7.47;;
44728;SDS011;30457;53.590;9.922;2022-08-19T14:25:08;9.10;;;7.13;;
44728;SDS011;30457;53.590;9.922;2022-08-19T14:29:37;8.82;;;7.50;;
44728;SDS011;30457;53.590;9.922;2022-08-19T14:34:02;8.93;;;7.03;;
44728;SDS011;30457;53.590;9.922;2022-08-19T14:38:28;10.77;;;7.40;;
44728;SDS011;30457;53.590;9.922;2022-08-19T14:42:56;7.88;;;6.60;;
44728;SDS011;30457;53.590;9.922;2022-08-19T14:47:28;9.27;;;6.50;;
44728;SDS011;30457;53.590;9.922;2022-08-19T14:51:54;8.40;;;6.25;;
44728;SDS011;30457;53.590;9.922;2022-08-19T14:56:22;7.68;;;6.78;;
44728;SDS011;30457;53.590;9.922;2022-08-19T15:00:50;9.75;;;6.57;;
44728;SDS011;30457;53.590;9.922;2022-08-19T15:05:16;10.23;;;6.15;;
44728;SDS011;30457;53.590;9.922;2022-08-19T15:09:42;6.45;;;5.63;;
44728;SDS011;30457;53.590;9.922;2022-08-19T15:14:07;7.28;;;5.47;;
44728;SDS011;30457;53.590;9.922;2022-08-19T15:18:35;7.05;;;6.03;;
44728;SDS011;30457;53.590;9.922;2022-08-19T15:23:01;7.82;;;5.60;;
44728;SDS011;30457;53.590;9.922;2022-08-19T15:27:27;5.78;;;4.95;;
44728;SDS011;30457;53.590;9.922;2022-08-19T15:31:53;6.00;;;5.20;;
44728;SDS011;30457;53.590;9.922;2022-08-19T15:36:21;9.05;;;4.90;;
44728;SDS011;30457;53.590;9.922;2022-08-19T15:40:48;5.45;;;4.82;;
44728;SDS011;30457;53.590;9.922;2022-08-19T15:45:15;5.65;;;5.05;;
44728;SDS011;30457;53.590;9.922;2022-08-19T15:49:42;4.95;;;4.30;;
44728;SDS011;30457;53.590;9.922;2022-08-19T15:54:09;5.28;;;4.72;;
44728;SDS011;30457;53.590;9.922;2022-08-19T15:58:39;6.68;;;4.47;;
44728;SDS011;30457;53.590;9.922;2022-08-19T16:03:34;6.60;;;4.85;;
44728;SDS011;30457;53.590;9.922;2022-08-19T16:08:18;5.35;;;4.85;;
44728;SDS011;30457;53.590;9.922;2022-08-19T16:12:45;5.68;;;5.05;;
44728;SDS011;30457;53.590;9.922;2022-08-19T16:17:11;4.63;;;4.10;;
44728;SDS011;30457;53.590;9.922;2022-08-19T16:21:36;5.10;;;4.60;;
44728;SDS011;30457;53.590;9.922;2022-08-19T16:26:04;4.90;;;4.50;;
44728;SDS011;30457;53.590;9.922;2022-08-19T16:30:29;4.90;;;4.40;;
44728;SDS011;30457;53.590;9.922;2022-08-19T16:34:55;3.72;;;3.42;;
44728;SDS011;30457;53.590;9.922;2022-08-19T16:39:20;3.50;;;3.20;;
44728;SDS011;30457;53.590;9.922;2022-08-19T16:43:48;4.32;;;3.20;;
44728;SDS011;30457;53.590;9.922;2022-08-19T16:48:16;5.22;;;3.75;;
44728;SDS011;30457;53.590;9.922;2022-08-19T16:52:41;3.58;;;3.22;;
44728;SDS011;30457;53.590;9.922;2022-08-19T16:57:07;4.05;;;3.28;;
44728;SDS011;30457;53.590;9.922;2022-08-19T17:01:32;4.57;;;4.10;;
44728;SDS011;30457;53.590;9.922;2022-08-19T17:05:59;4.45;;;4.00;;
44728;SDS011;30457;53.590;9.922;2022-08-19T17:10:28;4.88;;;4.15;;
44728;SDS011;30457;53.590;9.922;2022-08-19T17:14:53;4.00;;;3.70;;
44728;SDS011;30457;53.590;9.922;2022-08-19T17:19:20;4.85;;;4.22;;
44728;SDS011;30457;53.590;9.922;2022-08-19T17:23:45;4.43;;;4.03;;
44728;SDS011;30457;53.590;9.922;2022-08-19T17:28:13;7.32;;;5.60;;
44728;SDS011;30457;53.590;9.922;2022-08-19T17:32:40;6.13;;;4.75;;
44728;SDS011;30457;53.590;9.922;2022-08-19T17:37:06;5.22;;;4.43;;
44728;SDS011;30457;53.590;9.922;2022-08-19T17:41:31;6.05;;;5.47;;
44728;SDS011;30457;53.590;9.922;2022-08-19T17:45:59;5.40;;;4.50;;
44728;SDS011;30457;53.590;9.922;2022-08-19T17:50:28;5.68;;;4.50;;
44728;SDS011;30457;53.590;9.922;2022-08-19T17:54:54;6.35;;;5.00;;
44728;SDS011;30457;53.590;9.922;2022-08-19T17:59:20;5.25;;;4.75;;
44728;SDS011;30457;53.590;9.922;2022-08-19T18:03:46;6.47;;;4.63;;
44728;SDS011;30457;53.590;9.922;2022-08-19T18:08:11;5.68;;;4.88;;
44728;SDS011;30457;53.590;9.922;2022-08-19T18:12:37;6.65;;;5.47;;
44728;SDS011;30457;53.590;9.922;2022-08-19T18:17:08;6.30;;;5.30;;
44728;SDS011;30457;53.590;9.922;2022-08-19T18:21:36;7.30;;;5.43;;
44728;SDS011;30457;53.590;9.922;2022-08-19T18:26:03;8.48;;;5.95;;
44728;SDS011;30457;53.590;9.922;2022-08-19T18:30:30;6.25;;;5.65;;
44728;SDS011;30457;53.590;9.922;2022-08-19T18:34:59;6.30;;;5.43;;
44728;SDS011;30457;53.590;9.922;2022-08-19T18:39:25;6.45;;;5.70;;
44728;SDS011;30457;53.590;9.922;2022-08-19T18:44:10;6.07;;;5.47;;
44728;SDS011;30457;53.590;9.922;2022-08-19T18:48:54;7.33;;;6.30;;
44728;SDS011;30457;53.590;9.922;2022-08-19T18:53:30;7.13;;;5.82;;
44728;SDS011;30457;53.590;9.922;2022-08-19T18:57:57;9.15;;;5.72;;
44728;SDS011;30457;53.590;9.922;2022-08-19T19:02:23;9.05;;;6.07;;
44728;SDS011;30457;53.590;9.922;2022-08-19T19:06:49;8.00;;;6.03;;
44728;SDS011;30457;53.590;9.922;2022-08-19T19:11:16;8.35;;;6.78;;
44728;SDS011;30457;53.590;9.922;2022-08-19T19:15:50;8.60;;;6.45;;
44728;SDS011;30457;53.590;9.922;2022-08-19T19:20:18;9.30;;;7.07;;
44728;SDS011;30457;53.590;9.922;2022-08-19T19:24:43;7.10;;;6.40;;
44728;SDS011;30457;53.590;9.922;2022-08-19T19:29:09;7.20;;;6.50;;
44728;SDS011;30457;53.590;9.922;2022-08-19T19:33:36;7.70;;;7.00;;
44728;SDS011;30457;53.590;9.922;2022-08-19T19:38:01;7.95;;;6.97;;
44728;SDS011;30457;53.590;9.922;2022-08-19T19:42:27;9.10;;;6.32;;
44728;SDS011;30457;53.590;9.922;2022-08-19T19:46:52;9.77;;;7.18;;
44728;SDS011;30457;53.590;9.922;2022-08-19T19:51:19;6.85;;;6.15;;
44728;SDS011;30457;53.590;9.922;2022-08-19T19:55:46;7.65;;;6.88;;
44728;SDS011;30457;53.590;9.922;2022-08-19T20:00:12;8.10;;;7.30;;
44728;SDS011;30457;53.590;9.922;2022-08-19T20:04:40;8.85;;;6.43;;
44728;SDS011;30457;53.590;9.922;2022-08-19T20:09:06;8.98;;;6.80;;
44728;SDS011;30457;53.590;9.922;2022-08-19T20:13:34;10.02;;;6.85;;
44728;SDS011;30457;53.590;9.922;2022-08-19T20:17:59;12.05;;;6.95;;
44728;SDS011;30457;53.590;9.922;2022-08-19T20:22:28;7.82;;;6.75;;
44728;SDS011;30457;53.590;9.922;2022-08-19T20:26:54;8.32;;;6.88;;
44728;SDS011;30457;53.590;9.922;2022-08-19T20:31:19;9.43;;;7.13;;
44728;SDS011;30457;53.590;9.922;2022-08-19T20:35:45;12.45;;;8.23;;
44728;SDS011;30457;53.590;9.922;2022-08-19T20:40:11;11.20;;;7.70;;
44728;SDS011;30457;53.590;9.922;2022-08-19T20:44:37;12.02;;;8.50;;
44728;SDS011;30457;53.590;9.922;2022-08-19T20:49:03;11.48;;;8.27;;
44728;SDS011;30457;53.590;9.922;2022-08-19T20:53:28;10.70;;;8.82;;
44728;SDS011;30457;53.590;9.922;2022-08-19T20:57:54;10.75;;;7.53;;
44728;SDS011;30457;53.590;9.922;2022-08-19T21:02:20;12.25;;;8.20;;
44728;SDS011;30457;53.590;9.922;2022-08-19T21:06:46;15.13;;;8.23;;
44728;SDS011;30457;53.590;9.922;2022-08-19T21:11:13;11.15;;;8.23;;
44728;SDS011;30457;53.590;9.922;2022-08-19T21:15:39;12.00;;;8.43;;
44728;SDS011;30457;53.590;9.922;2022-08-19T21:20:07;9.35;;;7.88;;
44728;SDS011;30457;53.590;9.922;2022-08-19T21:24:34;14.73;;;8.48;;
44728;SDS011;30457;53.590;9.922;2022-08-19T21:29:00;11.27;;;8.07;;
44728;SDS011;30457;53.590;9.922;2022-08-19T21:33:26;10.55;;;8.40;;
44728;SDS011;30457;53.590;9.922;2022-08-19T21:37:54;11.65;;;8.00;;
44728;SDS011;30457;53.590;9.922;2022-08-19T21:42:22;9.80;;;7.40;;
44728;SDS011;30457;53.590;9.922;2022-08-19T21:46:48;9.50;;;7.82;;
44728;SDS011;30457;53.590;9.922;2022-08-19T21:51:13;10.77;;;7.47;;
44728;SDS011;30457;53.590;9.922;2022-08-19T21:55:39;8.23;;;7.32;;
44728;SDS011;30457;53.590;9.922;2022-08-19T22:00:07;10.57;;;7.70;;
44728;SDS011;30457;53.590;9.922;2022-08-19T22:04:38;8.70;;;7.35;;
44728;SDS011;30457;53.590;9.922;2022-08-19T22:09:05;12.05;;;7.93;;
44728;SDS011;30457;53.590;9.922;2022-08-19T22:13:32;14.98;;;8.00;;
44728;SDS011;30457;53.590;9.922;2022-08-19T22:18:02;10.73;;;7.05;;
44728;SDS011;30457;53.590;9.922;2022-08-19T22:22:29;8.18;;;7.10;;
44728;SDS011;30457;53.590;9.922;2022-08-19T22:26:56;10.82;;;7.60;;
44728;SDS011;30457;53.590;9.922;2022-08-19T22:31:21;9.00;;;6.75;;
44728;SDS011;30457;53.590;9.922;2022-08-19T22:35:47;7.90;;;6.70;;
44728;SDS011;30457;53.590;9.922;2022-08-19T22:40:13;6.85;;;6.15;;
44728;SDS011;30457;53.590;9.922;2022-08-19T22:44:39;7.07;;;6.13;;
44728;SDS011;30457;53.590;9.922;2022-08-19T22:49:05;6.72;;;5.85;;
44728;SDS011;30457;53.590;9.922;2022-08-19T22:53:31;6.65;;;5.57;;
44728;SDS011;30457;53.590;9.922;2022-08-19T22:57:58;5.93;;;5.32;;
44728;SDS011;30457;53.590;9.922;2022-08-19T23:02:26;6.22;;;5.15;;
44728;SDS011;30457;53.590;9.922;2022-08-19T23:06:53;5.82;;;5.20;;
44728;SDS011;30457;53.590;9.922;2022-08-19T23:11:18;6.82;;;5.55;;
44728;SDS011;30457;53.590;9.922;2022-08-19T23:15:45;6.78;;;5.00;;
44728;SDS011;30457;53.590;9.922;2022-08-19T23:20:11;5.65;;;4.07;;
44728;SDS011;30457;53.590;9.922;2022-08-19T23:24:39;5.70;;;4.25;;
44728;SDS011;30457;53.590;9.922;2022-08-19T23:29:04;6.15;;;4.38;;
44728;SDS011;30457;53.590;9.922;2022-08-19T23:33:49;4.57;;;4.18;;
44728;SDS011;30457;53.590;9.922;2022-08-19T23:38:14;4.65;;;3.63;;
44728;SDS011;30457;53.590;9.922;2022-08-19T23:42:40;5.18;;;3.58;;
44728;SDS011;30457;53.590;9.922;2022-08-19T23:47:06;3.35;;;3.05;;
44728;SDS011;30457;53.590;9.922;2022-08-19T23:51:31;3.55;;;2.95;;
44728;SDS011;30457;53.590;9.922;2022-08-19T23:55:57;3.67;;;3.33;;
